createdAt,value
2022-12-14T00:00:42.877Z,16.63
2022-12-14T00:03:17.597Z,16.43
2022-12-14T00:05:49.745Z,15.53
2022-12-14T00:08:21.498Z,16.00
2022-12-14T00:10:53.149Z,16.60
2022-12-14T00:13:24.927Z,16.70
2022-12-14T00:15:56.721Z,18.70
2022-12-14T00:18:29.170Z,18.10
2022-12-14T00:21:06.012Z,18.13
2022-12-14T00:23:39.262Z,15.60
2022-12-14T00:26:25.464Z,18.00
2022-12-14T00:28:58.005Z,18.67
2022-12-14T00:31:31.441Z,18.70
2022-12-14T00:34:03.257Z,17.93
2022-12-14T00:36:36.481Z,19.77
2022-12-14T00:39:08.136Z,17.97
2022-12-14T00:41:39.809Z,18.20
2022-12-14T00:44:11.615Z,18.83
2022-12-14T00:46:43.382Z,17.30
2022-12-14T00:49:15.117Z,17.50
2022-12-14T00:51:47.913Z,18.03
2022-12-14T00:54:19.610Z,18.17
2022-12-14T00:56:51.334Z,18.00
2022-12-14T00:59:27.209Z,19.27
2022-12-14T01:01:59.213Z,19.00
2022-12-14T01:04:31.351Z,18.17
2022-12-14T01:07:03.069Z,19.43
2022-12-14T01:09:34.805Z,18.63
2022-12-14T01:12:06.578Z,17.17
2022-12-14T01:14:38.358Z,17.50
2022-12-14T01:17:10.184Z,19.20
2022-12-14T01:19:42.013Z,18.90
2022-12-14T01:22:13.834Z,19.57
2022-12-14T01:24:45.640Z,17.95
2022-12-14T01:27:17.439Z,20.00
2022-12-14T01:29:49.113Z,18.67
2022-12-14T01:32:20.930Z,18.90
2022-12-14T01:34:52.634Z,17.80
2022-12-14T01:37:24.531Z,19.43
2022-12-14T01:39:56.252Z,17.37
2022-12-14T01:42:28.070Z,19.97
2022-12-14T01:44:59.877Z,17.50
2022-12-14T01:47:38.449Z,20.63
2022-12-14T01:50:20.933Z,17.63
2022-12-14T01:52:57.766Z,19.13
2022-12-14T01:55:36.563Z,18.60
2022-12-14T01:58:19.929Z,19.00
2022-12-14T02:00:58.378Z,18.00
2022-12-14T02:03:33.513Z,20.80
2022-12-14T02:06:22.142Z,20.33
2022-12-14T02:08:54.778Z,18.23
2022-12-14T02:11:38.693Z,18.97
2022-12-14T02:14:10.542Z,19.23
2022-12-14T02:16:42.605Z,18.63
2022-12-14T02:19:14.332Z,20.30
2022-12-14T02:21:48.890Z,21.27
2022-12-14T02:24:44.976Z,19.33
2022-12-14T02:27:25.560Z,18.23
2022-12-14T02:29:57.183Z,20.73
2022-12-14T02:32:49.911Z,19.67
2022-12-14T02:35:30.460Z,18.17
2022-12-14T02:38:27.909Z,21.13
2022-12-14T02:41:18.434Z,20.37
2022-12-14T02:44:25.427Z,20.53
2022-12-14T02:47:06.356Z,18.27
2022-12-14T02:50:06.019Z,21.70
2022-12-14T02:53:03.494Z,20.70
2022-12-14T02:55:49.897Z,21.77
2022-12-14T02:58:47.940Z,20.50
2022-12-14T03:01:25.147Z,20.47
2022-12-14T03:03:57.079Z,19.43
2022-12-14T03:06:29.590Z,19.90
2022-12-14T03:09:03.528Z,21.33
2022-12-14T03:11:46.917Z,20.17
2022-12-14T03:14:27.675Z,20.20
2022-12-14T03:17:07.513Z,20.97
2022-12-14T03:19:44.805Z,19.60
2022-12-14T03:22:40.230Z,21.13
2022-12-14T03:25:19.055Z,17.90
2022-12-14T03:28:01.831Z,20.07
2022-12-14T03:30:59.319Z,21.07
2022-12-14T03:33:32.197Z,20.43
2022-12-14T03:36:32.539Z,20.57
2022-12-14T03:39:07.892Z,20.17
2022-12-14T03:42:01.268Z,20.30
2022-12-14T03:44:48.861Z,20.17
2022-12-14T03:47:42.368Z,21.83
2022-12-14T03:50:35.810Z,19.90
2022-12-14T03:53:18.894Z,20.30
2022-12-14T03:56:16.366Z,18.97
2022-12-14T03:59:09.004Z,20.37
2022-12-14T04:02:07.938Z,19.80
2022-12-14T04:05:24.250Z,20.63
2022-12-14T04:08:06.888Z,17.87
2022-12-14T04:11:05.461Z,22.92
2022-12-14T04:14:01.441Z,21.20
2022-12-14T04:17:01.018Z,20.63
2022-12-14T04:19:43.777Z,19.90
2022-12-14T04:22:21.329Z,20.53
2022-12-14T04:25:20.671Z,20.50
2022-12-14T04:28:02.353Z,18.73
2022-12-14T04:30:38.932Z,19.90
2022-12-14T04:33:31.003Z,20.63
2022-12-14T04:36:04.264Z,19.87
2022-12-14T04:38:39.143Z,21.30
2022-12-14T04:41:15.168Z,20.37
2022-12-14T04:43:49.142Z,21.40
2022-12-14T04:46:26.907Z,19.33
2022-12-14T04:49:35.006Z,20.67
2022-12-14T04:52:15.763Z,21.47
2022-12-14T04:54:59.649Z,19.23
2022-12-14T04:57:53.247Z,20.77
2022-12-14T05:00:25.144Z,20.93
2022-12-14T05:03:13.341Z,21.23
2022-12-14T05:06:13.125Z,22.45
2022-12-14T05:09:12.127Z,23.40
2022-12-14T05:11:54.268Z,22.00
2022-12-14T05:15:05.746Z,22.43
2022-12-14T05:17:39.089Z,20.80
2022-12-14T05:20:17.865Z,21.07
2022-12-14T05:22:50.644Z,20.87
2022-12-14T05:25:22.455Z,20.90
2022-12-14T05:27:55.017Z,20.70
2022-12-14T05:30:26.907Z,20.60
2022-12-14T05:32:58.701Z,21.03
2022-12-14T05:35:30.685Z,22.77
2022-12-14T05:38:02.442Z,21.53
2022-12-14T05:40:34.655Z,23.33
2022-12-14T05:43:07.977Z,23.97
2022-12-14T05:45:39.772Z,22.97
2022-12-14T05:48:11.503Z,23.20
2022-12-14T05:50:43.166Z,21.67
2022-12-14T05:53:14.907Z,25.03
2022-12-14T05:55:48.129Z,22.80
2022-12-14T05:58:20.923Z,23.00
2022-12-14T06:00:52.726Z,22.07
2022-12-14T06:03:25.874Z,24.63
2022-12-14T06:06:06.292Z,23.50
2022-12-14T06:08:42.199Z,22.23
2022-12-14T06:11:21.926Z,22.03
2022-12-14T06:13:53.650Z,22.03
2022-12-14T06:16:26.655Z,24.27
2022-12-14T06:19:01.293Z,24.73
2022-12-14T06:21:35.575Z,25.50
2022-12-14T06:24:08.566Z,22.37
2022-12-14T06:26:41.129Z,22.50
2022-12-14T06:29:19.144Z,21.97
2022-12-14T06:31:50.849Z,21.30
2022-12-14T06:34:28.161Z,23.10
2022-12-14T06:37:00.377Z,22.03
2022-12-14T06:39:32.144Z,21.77
2022-12-14T06:42:04.024Z,23.47
2022-12-14T06:44:35.816Z,25.37
2022-12-14T06:47:07.527Z,23.97
2022-12-14T06:49:39.209Z,22.83
2022-12-14T06:52:11.016Z,24.60
2022-12-14T06:54:43.225Z,24.03
2022-12-14T06:57:15.041Z,23.10
2022-12-14T06:59:46.780Z,24.13
2022-12-14T07:02:18.572Z,24.40
2022-12-14T07:04:50.493Z,23.63
2022-12-14T07:07:22.435Z,24.73
2022-12-14T07:09:54.144Z,23.83
2022-12-14T07:12:27.818Z,24.00
2022-12-14T07:14:59.659Z,25.07
2022-12-14T07:17:31.633Z,25.47
2022-12-14T07:20:05.893Z,23.73
2022-12-14T07:22:38.838Z,24.03
2022-12-14T07:25:10.518Z,25.07
2022-12-14T07:27:42.316Z,21.70
2022-12-14T07:30:14.510Z,22.50
2022-12-14T07:32:46.875Z,23.40
2022-12-14T07:35:18.824Z,21.67
2022-12-14T07:37:50.553Z,23.87
2022-12-14T07:40:22.509Z,26.47
2022-12-14T07:42:54.483Z,21.90
2022-12-14T07:45:27.069Z,30.13
2022-12-14T07:47:58.897Z,29.17
2022-12-14T07:50:30.824Z,29.58
2022-12-14T07:53:02.567Z,27.07
2022-12-14T07:55:35.470Z,27.30
2022-12-14T07:58:07.357Z,27.20
2022-12-14T08:00:39.189Z,26.20
2022-12-14T08:03:11.674Z,25.93
2022-12-14T08:05:43.410Z,26.93
2022-12-14T08:08:15.263Z,26.30
2022-12-14T08:10:49.170Z,26.47
2022-12-14T08:13:20.896Z,27.53
2022-12-14T08:15:52.823Z,24.63
2022-12-14T08:18:24.622Z,25.83
2022-12-14T08:20:56.310Z,26.77
2022-12-14T08:23:28.563Z,27.80
2022-12-14T08:26:01.316Z,27.10
2022-12-14T08:28:34.540Z,29.07
2022-12-14T08:31:09.872Z,26.90
2022-12-14T08:33:43.407Z,27.30
2022-12-14T08:36:27.352Z,27.20
2022-12-14T08:39:01.048Z,26.77
2022-12-14T08:41:33.349Z,29.70
2022-12-14T08:44:05.519Z,29.35
2022-12-14T08:46:40.263Z,28.53
2022-12-14T08:49:12.381Z,31.00
2022-12-14T08:51:44.165Z,31.37
2022-12-14T08:54:17.382Z,29.50
2022-12-14T08:56:49.254Z,29.47
2022-12-14T08:59:52.050Z,27.57
2022-12-14T09:02:12.870Z,30.43
2022-12-14T09:04:44.711Z,32.43
2022-12-14T09:07:16.425Z,31.33
2022-12-14T09:09:48.183Z,31.40
2022-12-14T09:12:20.753Z,31.50
2022-12-14T09:14:52.464Z,32.17
2022-12-14T09:17:24.233Z,31.90
2022-12-14T09:19:56.016Z,29.97
2022-12-14T09:22:27.862Z,29.83
2022-12-14T09:24:59.764Z,28.60
2022-12-14T09:27:31.521Z,30.73
2022-12-14T09:30:03.916Z,30.20
2022-12-14T09:32:35.643Z,29.37
2022-12-14T09:35:07.881Z,27.50
2022-12-14T09:37:39.689Z,28.50
2022-12-14T09:40:13.524Z,36.10
2022-12-14T09:42:59.205Z,33.13
2022-12-14T09:45:34.189Z,30.50
2022-12-14T09:48:16.572Z,30.20
2022-12-14T09:50:50.216Z,28.07
2022-12-14T09:53:22.952Z,28.60
2022-12-14T09:55:56.889Z,27.37
2022-12-14T09:58:31.208Z,31.53
2022-12-14T10:01:24.246Z,32.00
2022-12-14T10:04:24.072Z,29.10
2022-12-14T10:07:17.465Z,27.97
2022-12-14T10:10:09.950Z,28.40
2022-12-14T10:12:52.345Z,27.23
2022-12-14T10:16:06.529Z,29.60
2022-12-14T10:19:01.872Z,29.87
2022-12-14T10:21:47.360Z,31.17
2022-12-14T10:24:45.096Z,31.50
2022-12-14T10:27:25.618Z,30.77
2022-12-14T10:30:06.257Z,28.93
2022-12-14T10:32:40.028Z,30.53
2022-12-14T10:35:17.056Z,33.83
2022-12-14T10:38:04.517Z,34.10
2022-12-14T10:40:52.467Z,32.27
2022-12-14T10:43:33.083Z,31.87
2022-12-14T10:46:30.797Z,33.57
2022-12-14T10:49:17.582Z,29.23
2022-12-14T10:51:55.166Z,29.87
2022-12-14T10:54:30.184Z,31.80
2022-12-14T10:57:02.024Z,27.47
2022-12-14T10:59:40.598Z,29.63
2022-12-14T11:02:27.494Z,31.50
2022-12-14T11:05:11.882Z,30.87
2022-12-14T11:07:45.813Z,31.17
2022-12-14T11:10:24.935Z,30.77
2022-12-14T11:13:17.788Z,29.37
2022-12-14T11:15:52.356Z,28.80
2022-12-14T11:18:31.260Z,29.93
2022-12-14T11:21:05.693Z,29.90
2022-12-14T11:23:43.770Z,29.93
2022-12-14T11:26:25.616Z,30.17
2022-12-14T11:28:59.342Z,31.60
2022-12-14T11:31:43.843Z,31.97
2022-12-14T11:34:35.873Z,30.80
2022-12-14T11:37:22.483Z,33.57
2022-12-14T11:40:05.785Z,30.00
2022-12-14T11:42:38.086Z,32.20
2022-12-14T11:45:39.771Z,31.03
2022-12-14T11:48:20.506Z,31.00
2022-12-14T11:50:55.210Z,30.90
2022-12-14T11:53:27.002Z,32.33
2022-12-14T11:56:02.003Z,29.10
2022-12-14T11:58:38.325Z,29.90
2022-12-14T12:01:16.270Z,32.45
2022-12-14T12:03:55.361Z,32.27
2022-12-14T12:06:29.810Z,31.37
2022-12-14T12:09:08.780Z,31.40
2022-12-14T12:11:45.319Z,29.60
2022-12-14T12:14:29.977Z,29.30
2022-12-14T12:17:01.758Z,27.50
2022-12-14T12:19:38.075Z,28.10
2022-12-14T12:22:13.746Z,26.63
2022-12-14T12:25:25.079Z,33.28
2022-12-14T12:28:02.249Z,30.50
2022-12-14T12:30:38.588Z,30.13
2022-12-14T12:33:22.482Z,32.90
2022-12-14T12:35:56.393Z,33.30
2022-12-14T12:38:31.400Z,32.00
2022-12-14T12:41:15.657Z,30.93
2022-12-14T12:44:05.498Z,31.10
2022-12-14T12:47:07.184Z,31.17
2022-12-14T12:49:37.089Z,31.57
2022-12-14T12:52:33.450Z,33.10
2022-12-14T12:55:16.166Z,32.40
2022-12-14T12:57:51.827Z,37.90
2022-12-14T13:00:28.333Z,35.50
2022-12-14T13:03:10.833Z,38.00
2022-12-14T13:05:46.839Z,36.43
2022-12-14T13:08:39.634Z,36.37
2022-12-14T13:11:35.872Z,31.67
2022-12-14T13:14:13.833Z,32.87
2022-12-14T13:16:46.501Z,31.40
2022-12-14T13:19:50.156Z,31.83
2022-12-14T13:22:27.819Z,30.97
2022-12-14T13:25:11.098Z,33.50
2022-12-14T13:28:01.135Z,33.40
2022-12-14T13:30:47.979Z,33.20
2022-12-14T13:33:33.098Z,31.27
2022-12-14T13:36:41.672Z,33.70
2022-12-14T13:39:32.119Z,32.67
2022-12-14T13:42:31.888Z,32.93
2022-12-14T13:45:19.541Z,31.83
2022-12-14T13:47:55.355Z,34.37
2022-12-14T13:50:42.421Z,39.00
2022-12-14T13:53:30.609Z,33.00
2022-12-14T13:56:02.957Z,34.73
2022-12-14T13:58:43.295Z,33.13
2022-12-14T14:01:46.364Z,34.40
2022-12-14T14:04:23.217Z,32.07
2022-12-14T14:06:56.958Z,34.37
2022-12-14T14:09:34.629Z,33.70
2022-12-14T14:12:34.319Z,33.17
2022-12-14T14:15:22.663Z,37.67
2022-12-14T14:18:07.290Z,34.57
2022-12-14T14:20:48.383Z,32.33
2022-12-14T14:23:23.300Z,32.90
2022-12-14T14:26:36.576Z,33.37
2022-12-14T14:29:11.369Z,32.27
2022-12-14T14:31:57.089Z,33.30
2022-12-14T14:34:44.665Z,32.77
2022-12-14T14:37:26.029Z,31.87
2022-12-14T14:40:33.540Z,29.87
2022-12-14T14:43:23.504Z,31.67
2022-12-14T14:45:58.859Z,29.23
2022-12-14T14:48:39.158Z,34.80
2022-12-14T14:51:10.833Z,32.77
2022-12-14T14:53:42.644Z,28.90
2022-12-14T14:56:34.192Z,30.33
2022-12-14T14:59:14.806Z,31.97
2022-12-14T15:02:01.485Z,30.87
2022-12-14T15:04:51.429Z,31.87
2022-12-14T15:07:30.120Z,28.00
2022-12-14T15:10:23.902Z,32.60
2022-12-14T15:13:02.092Z,36.10
2022-12-14T15:15:45.104Z,36.90
2022-12-14T15:18:30.808Z,32.50
2022-12-14T15:21:04.537Z,34.77
2022-12-14T15:23:45.280Z,34.80
2022-12-14T15:26:32.926Z,28.07
2022-12-14T15:29:05.037Z,30.37
2022-12-14T15:31:40.661Z,26.40
2022-12-14T15:34:17.919Z,31.97
2022-12-14T15:36:50.670Z,28.13
2022-12-14T15:39:40.204Z,30.33
2022-12-14T15:42:17.257Z,27.95
2022-12-14T15:44:51.000Z,29.30
2022-12-14T15:47:28.751Z,31.37
2022-12-14T15:50:35.037Z,26.90
2022-12-14T15:53:50.318Z,27.53
2022-12-14T15:56:27.510Z,28.30
2022-12-14T15:59:02.653Z,24.90
2022-12-14T16:01:46.105Z,28.30
2022-12-14T16:04:25.756Z,25.77
2022-12-14T16:07:09.436Z,30.03
2022-12-14T16:09:50.536Z,26.33
2022-12-14T16:12:45.320Z,26.40
2022-12-14T16:15:26.664Z,25.80
2022-12-14T16:18:02.701Z,26.27
2022-12-14T16:20:37.778Z,23.03
2022-12-14T16:23:15.810Z,24.10
2022-12-14T16:26:00.455Z,21.63
2022-12-14T16:28:37.187Z,23.33
2022-12-14T16:31:14.840Z,21.80
2022-12-14T16:33:50.269Z,21.53
2022-12-14T16:36:27.998Z,22.90
2022-12-14T16:39:20.904Z,25.23
2022-12-14T16:41:55.186Z,25.37
2022-12-14T16:44:33.082Z,23.50
2022-12-14T16:47:14.571Z,21.07
2022-12-14T16:50:01.921Z,22.97
2022-12-14T16:52:36.198Z,22.40
2022-12-14T16:55:19.969Z,20.10
2022-12-14T16:57:55.627Z,22.70
2022-12-14T17:00:36.121Z,23.20
2022-12-14T17:03:23.006Z,22.03
2022-12-14T17:05:58.653Z,21.53
2022-12-14T17:08:31.175Z,20.27
2022-12-14T17:11:03.265Z,18.60
2022-12-14T17:13:35.081Z,21.73
2022-12-14T17:16:08.002Z,22.77
2022-12-14T17:18:41.334Z,22.70
2022-12-14T17:21:21.940Z,21.20
2022-12-14T17:23:55.509Z,19.77
2022-12-14T17:26:30.736Z,21.90
2022-12-14T17:29:02.609Z,18.27
2022-12-14T17:31:34.666Z,21.20
2022-12-14T17:34:06.437Z,21.90
2022-12-14T17:36:38.404Z,19.77
2022-12-14T17:39:10.188Z,20.90
2022-12-14T17:41:44.997Z,20.90
2022-12-14T17:44:19.670Z,20.90
2022-12-14T17:46:52.151Z,21.00
2022-12-14T17:49:35.816Z,21.80
2022-12-14T17:52:15.370Z,22.20
2022-12-14T17:54:47.759Z,22.70
2022-12-14T17:57:24.249Z,20.13
2022-12-14T18:00:14.326Z,21.77
2022-12-14T18:02:46.412Z,20.87
2022-12-14T18:05:21.565Z,22.02
2022-12-14T18:07:53.270Z,21.27
2022-12-14T18:10:25.706Z,22.63
2022-12-14T18:12:57.890Z,20.90
2022-12-14T18:15:41.252Z,22.40
2022-12-14T18:18:13.258Z,22.70
2022-12-14T18:20:49.455Z,22.40
2022-12-14T18:23:22.337Z,20.70
2022-12-14T18:25:56.654Z,20.87
2022-12-14T18:28:28.486Z,18.50
2022-12-14T18:31:06.573Z,19.90
2022-12-14T18:33:39.292Z,19.07
2022-12-14T18:36:12.171Z,17.37
2022-12-14T18:38:44.039Z,22.37
2022-12-14T18:41:23.564Z,18.80
2022-12-14T18:43:55.968Z,21.53
2022-12-14T18:46:28.004Z,18.70
2022-12-14T18:48:59.733Z,18.93
2022-12-14T18:51:31.444Z,18.00
2022-12-14T18:54:03.922Z,21.40
2022-12-14T18:56:35.693Z,19.87
2022-12-14T18:59:07.468Z,19.60
2022-12-14T19:01:39.608Z,18.27
2022-12-14T19:04:11.465Z,19.97
2022-12-14T19:06:44.988Z,19.27
2022-12-14T19:09:17.688Z,20.67
2022-12-14T19:11:49.478Z,19.70
2022-12-14T19:14:21.165Z,20.27
2022-12-14T19:16:52.863Z,19.77
2022-12-14T19:19:27.873Z,20.17
2022-12-14T19:22:04.574Z,21.57
2022-12-14T19:24:36.282Z,18.63
2022-12-14T19:27:08.136Z,19.27
2022-12-14T19:29:39.849Z,21.13
2022-12-14T19:32:11.725Z,18.80
2022-12-14T19:34:43.669Z,21.47
2022-12-14T19:37:15.497Z,22.07
2022-12-14T19:39:47.230Z,21.00
2022-12-14T19:42:20.718Z,20.37
2022-12-14T19:44:52.487Z,24.52
2022-12-14T19:47:24.297Z,22.00
2022-12-14T19:49:56.014Z,21.80
2022-12-14T19:52:27.750Z,20.53
2022-12-14T19:54:59.964Z,21.33
2022-12-14T19:57:31.677Z,20.63
2022-12-14T20:00:04.837Z,21.00
2022-12-14T20:02:37.883Z,22.30
2022-12-14T20:05:09.888Z,20.93
2022-12-14T20:07:43.880Z,20.87
2022-12-14T20:10:15.944Z,21.07
2022-12-14T20:12:47.643Z,21.50
2022-12-14T20:15:19.392Z,21.77
2022-12-14T20:17:51.060Z,21.97
2022-12-14T20:20:23.230Z,19.87
2022-12-14T20:22:55.040Z,19.07
2022-12-14T20:25:26.727Z,19.83
2022-12-14T20:27:58.436Z,18.70
2022-12-14T20:30:30.665Z,20.70
2022-12-14T20:33:02.431Z,20.20
2022-12-14T20:35:34.182Z,20.00
2022-12-14T20:38:05.868Z,20.87
2022-12-14T20:40:39.295Z,20.00
2022-12-14T20:43:12.448Z,19.73
2022-12-14T20:45:44.253Z,20.20
2022-12-14T20:48:16.004Z,20.83
2022-12-14T20:50:51.139Z,19.33
2022-12-14T20:53:24.549Z,20.57
2022-12-14T20:55:56.458Z,21.77
2022-12-14T20:58:28.156Z,21.70
2022-12-14T21:01:06.486Z,22.40
2022-12-14T21:03:38.299Z,20.83
2022-12-14T21:06:10.186Z,20.53
2022-12-14T21:09:00.845Z,21.33
2022-12-14T21:11:56.871Z,23.40
2022-12-14T21:14:37.421Z,20.33
2022-12-14T21:17:09.927Z,21.60
2022-12-14T21:19:41.700Z,21.90
2022-12-14T21:22:16.630Z,21.13
2022-12-14T21:25:06.132Z,24.47
2022-12-14T21:27:39.343Z,21.43
2022-12-14T21:30:11.908Z,24.30
2022-12-14T21:32:43.643Z,23.67
2022-12-14T21:35:17.697Z,23.80
2022-12-14T21:37:49.510Z,25.07
2022-12-14T21:40:39.720Z,25.50
2022-12-14T21:43:12.740Z,24.03
2022-12-14T21:45:46.098Z,23.63
2022-12-14T21:48:18.001Z,25.07
2022-12-14T21:50:49.729Z,24.90
2022-12-14T21:53:21.497Z,24.80
2022-12-14T21:56:13.228Z,23.70
2022-12-14T21:58:52.848Z,23.73
2022-12-14T22:01:25.874Z,23.10
2022-12-14T22:03:57.690Z,25.20
2022-12-14T22:06:29.809Z,22.63
2022-12-14T22:09:01.898Z,25.53
2022-12-14T22:11:34.296Z,25.37
2022-12-14T22:14:06.070Z,23.87
2022-12-14T22:16:37.885Z,24.17
2022-12-14T22:19:15.708Z,22.17
2022-12-14T22:21:48.164Z,23.57
2022-12-14T22:24:21.493Z,23.70
2022-12-14T22:26:53.617Z,22.03
2022-12-14T22:29:25.631Z,25.50
2022-12-14T22:31:57.582Z,22.10
2022-12-14T22:34:29.485Z,25.03
2022-12-14T22:37:01.696Z,21.60
2022-12-14T22:39:33.533Z,21.90
2022-12-14T22:42:05.393Z,23.80
2022-12-14T22:44:37.611Z,22.63
2022-12-14T22:47:09.359Z,24.92
2022-12-14T22:49:41.172Z,24.17
2022-12-14T22:52:12.899Z,21.30
2022-12-14T22:54:44.623Z,24.20
2022-12-14T22:57:22.439Z,22.90
2022-12-14T23:00:07.238Z,24.38
2022-12-14T23:02:40.832Z,22.00
2022-12-14T23:05:15.515Z,24.27
2022-12-14T23:07:47.645Z,25.37
2022-12-14T23:10:38.492Z,23.37
2022-12-14T23:13:29.150Z,23.13
2022-12-14T23:16:19.637Z,20.73
2022-12-14T23:19:10.126Z,23.43
2022-12-14T23:22:00.501Z,22.43
2022-12-14T23:24:50.944Z,25.00
2022-12-14T23:27:41.520Z,21.63
2022-12-14T23:30:32.067Z,22.80
2022-12-14T23:33:22.514Z,23.00
2022-12-14T23:36:13.079Z,22.00
2022-12-14T23:39:03.625Z,22.87
2022-12-14T23:41:54.406Z,23.73
2022-12-14T23:44:44.572Z,23.20
2022-12-14T23:47:35.461Z,24.27
2022-12-14T23:50:25.922Z,25.73
2022-12-14T23:53:16.346Z,25.33
2022-12-14T23:56:06.834Z,24.27
2022-12-14T23:58:57.404Z,23.97
